sensor_id;sensor_type;location;lat;lon;timestamp;pressure;altitude;pressure_sealevel;temperature;humidity
23677;BME280;31493;49.058;12.190;2023-03-21T00:00:38;96240.13;;;7.41;100.00
23677;BME280;31493;49.058;12.190;2023-03-21T00:03:07;96241.53;;;7.46;100.00
23677;BME280;31493;49.058;12.190;2023-03-21T00:05:34;96237.38;;;7.44;100.00
23677;BME280;31493;49.058;12.190;2023-03-21T00:08:05;96224.50;;;7.44;100.00
23677;BME280;31493;49.058;12.190;2023-03-21T00:10:32;96228.41;;;7.51;100.00
23677;BME280;31493;49.058;12.190;2023-03-21T00:12:59;96237.06;;;7.50;100.00
23677;BME280;31493;49.058;12.190;2023-03-21T00:15:26;96231.91;;;7.50;100.00
23677;BME280;31493;49.058;12.190;2023-03-21T00:17:54;96229.34;;;7.50;100.00
23677;BME280;31493;49.058;12.190;2023-03-21T00:20:24;96220.69;;;7.51;100.00
23677;BME280;31493;49.058;12.190;2023-03-21T00:22:51;96219.03;;;7.50;100.00
23677;BME280;31493;49.058;12.190;2023-03-21T00:25:18;96219.19;;;7.47;100.00
23677;BME280;31493;49.058;12.190;2023-03-21T00:27:45;96213.19;;;7.46;100.00
23677;BME280;31493;49.058;12.190;2023-03-21T00:30:13;96217.75;;;7.41;100.00
23677;BME280;31493;49.058;12.190;2023-03-21T00:32:40;96215.03;;;7.44;100.00
23677;BME280;31493;49.058;12.190;2023-03-21T00:35:08;96222.78;;;7.44;100.00
23677;BME280;31493;49.058;12.190;2023-03-21T00:37:36;96218.78;;;7.39;100.00
23677;BME280;31493;49.058;12.190;2023-03-21T00:40:04;96213.75;;;7.36;100.00
23677;BME280;31493;49.058;12.190;2023-03-21T00:42:34;96215.69;;;7.32;100.00
23677;BME280;31493;49.058;12.190;2023-03-21T00:45:01;96209.72;;;7.32;100.00
23677;BME280;31493;49.058;12.190;2023-03-21T00:47:28;96207.97;;;7.32;100.00
23677;BME280;31493;49.058;12.190;2023-03-21T00:49:55;96204.47;;;7.33;100.00
23677;BME280;31493;49.058;12.190;2023-03-21T00:52:22;96203.78;;;7.30;100.00
23677;BME280;31493;49.058;12.190;2023-03-21T00:54:51;96209.84;;;7.28;100.00
23677;BME280;31493;49.058;12.190;2023-03-21T00:57:18;96205.72;;;7.26;100.00
23677;BME280;31493;49.058;12.190;2023-03-21T00:59:45;96199.63;;;7.27;100.00
23677;BME280;31493;49.058;12.190;2023-03-21T01:02:12;96195.56;;;7.23;100.00
23677;BME280;31493;49.058;12.190;2023-03-21T01:04:47;96192.75;;;7.27;100.00
23677;BME280;31493;49.058;12.190;2023-03-21T01:07:15;96194.56;;;7.25;100.00
23677;BME280;31493;49.058;12.190;2023-03-21T01:09:42;96190.41;;;7.23;100.00
23677;BME280;31493;49.058;12.190;2023-03-21T01:12:10;96195.56;;;7.23;100.00
23677;BME280;31493;49.058;12.190;2023-03-21T01:14:37;96185.66;;;7.15;100.00
23677;BME280;31493;49.058;12.190;2023-03-21T01:17:04;96193.31;;;7.17;100.00
23677;BME280;31493;49.058;12.190;2023-03-21T01:19:31;96190.50;;;7.21;100.00
23677;BME280;31493;49.058;12.190;2023-03-21T01:21:58;96198.13;;;7.23;100.00
23677;BME280;31493;49.058;12.190;2023-03-21T01:24:25;96181.75;;;7.24;100.00
23677;BME280;31493;49.058;12.190;2023-03-21T01:26:52;96185.19;;;7.24;100.00
23677;BME280;31493;49.058;12.190;2023-03-21T01:29:21;96192.59;;;7.31;100.00
23677;BME280;31493;49.058;12.190;2023-03-21T01:31:48;96196.06;;;7.30;100.00
23677;BME280;31493;49.058;12.190;2023-03-21T01:34:15;96188.50;;;7.26;100.00
23677;BME280;31493;49.058;12.190;2023-03-21T01:36:42;96177.28;;;7.27;100.00
23677;BME280;31493;49.058;12.190;2023-03-21T01:39:09;96178.22;;;7.26;100.00
23677;BME280;31493;49.058;12.190;2023-03-21T01:41:38;96168.75;;;7.27;100.00
23677;BME280;31493;49.058;12.190;2023-03-21T01:44:06;96181.28;;;7.33;100.00
23677;BME280;31493;49.058;12.190;2023-03-21T01:46:40;96180.38;;;7.34;100.00
23677;BME280;31493;49.058;12.190;2023-03-21T01:49:11;96179.78;;;7.29;100.00
23677;BME280;31493;49.058;12.190;2023-03-21T01:51:43;96184.09;;;7.28;100.00
23677;BME280;31493;49.058;12.190;2023-03-21T01:54:15;96181.75;;;7.24;100.00
23677;BME280;31493;49.058;12.190;2023-03-21T01:56:44;96173.22;;;7.23;100.00
23677;BME280;31493;49.058;12.190;2023-03-21T01:59:16;96168.00;;;7.25;100.00
23677;BME280;31493;49.058;12.190;2023-03-21T02:01:49;96174.91;;;7.24;100.00
23677;BME280;31493;49.058;12.190;2023-03-21T02:04:18;96181.44;;;7.30;100.00
23677;BME280;31493;49.058;12.190;2023-03-21T02:06:56;96179.53;;;7.34;100.00
23677;BME280;31493;49.058;12.190;2023-03-21T02:09:27;96172.72;;;7.33;100.00
23677;BME280;31493;49.058;12.190;2023-03-21T02:11:57;96171.06;;;7.32;100.00
23677;BME280;31493;49.058;12.190;2023-03-21T02:14:24;96165.00;;;7.33;100.00
23677;BME280;31493;49.058;12.190;2023-03-21T02:16:59;96162.84;;;7.25;100.00
23677;BME280;31493;49.058;12.190;2023-03-21T02:20:03;96165.44;;;7.25;100.00
23677;BME280;31493;49.058;12.190;2023-03-21T02:26:18;96155.78;;;7.28;100.00
23677;BME280;31493;49.058;12.190;2023-03-21T02:28:55;96160.34;;;7.23;100.00
23677;BME280;31493;49.058;12.190;2023-03-21T02:31:35;96154.34;;;7.23;100.00
23677;BME280;31493;49.058;12.190;2023-03-21T02:34:35;96148.47;;;7.21;100.00
23677;BME280;31493;49.058;12.190;2023-03-21T02:37:19;96161.66;;;7.15;100.00
23677;BME280;31493;49.058;12.190;2023-03-21T02:39:55;96151.59;;;7.10;100.00
23677;BME280;31493;49.058;12.190;2023-03-21T02:42:28;96158.50;;;7.10;100.00
23677;BME280;31493;49.058;12.190;2023-03-21T02:44:59;96161.91;;;7.10;100.00
23677;BME280;31493;49.058;12.190;2023-03-21T02:47:31;96155.78;;;7.13;100.00
23677;BME280;31493;49.058;12.190;2023-03-21T02:50:04;96157.56;;;7.11;100.00
23677;BME280;31493;49.058;12.190;2023-03-21T02:52:35;96151.69;;;7.09;100.00
23677;BME280;31493;49.058;12.190;2023-03-21T02:55:05;96160.56;;;7.03;100.00
23677;BME280;31493;49.058;12.190;2023-03-21T02:57:40;96142.41;;;7.06;100.00
23677;BME280;31493;49.058;12.190;2023-03-21T03:00:12;96149.19;;;7.07;100.00
23677;BME280;31493;49.058;12.190;2023-03-21T03:02:42;96154.41;;;7.06;100.00
23677;BME280;31493;49.058;12.190;2023-03-21T03:05:14;96152.94;;;7.02;100.00
23677;BME280;31493;49.058;12.190;2023-03-21T03:07:54;96153.84;;;7.00;100.00
23677;BME280;31493;49.058;12.190;2023-03-21T03:10:38;96149.53;;;7.01;100.00
23677;BME280;31493;49.058;12.190;2023-03-21T03:13:17;96150.50;;;6.98;100.00
23677;BME280;31493;49.058;12.190;2023-03-21T03:15:51;96156.56;;;6.97;100.00
23677;BME280;31493;49.058;12.190;2023-03-21T03:18:28;96146.59;;;6.91;100.00
23677;BME280;31493;49.058;12.190;2023-03-21T03:21:06;96146.34;;;6.96;100.00
23677;BME280;31493;49.058;12.190;2023-03-21T03:23:41;96155.06;;;6.93;100.00
23677;BME280;31493;49.058;12.190;2023-03-21T03:26:14;96157.13;;;6.87;100.00
23677;BME280;31493;49.058;12.190;2023-03-21T03:28:47;96156.28;;;6.86;100.00
23677;BME280;31493;49.058;12.190;2023-03-21T03:31:20;96156.06;;;6.91;100.00
23677;BME280;31493;49.058;12.190;2023-03-21T03:33:54;96150.69;;;6.95;100.00
23677;BME280;31493;49.058;12.190;2023-03-21T03:36:23;96146.50;;;6.93;100.00
23677;BME280;31493;49.058;12.190;2023-03-21T03:38:56;96145.84;;;6.89;100.00
23677;BME280;31493;49.058;12.190;2023-03-21T03:41:25;96148.34;;;6.91;100.00
23677;BME280;31493;49.058;12.190;2023-03-21T03:43:53;96147.88;;;7.00;100.00
23677;BME280;31493;49.058;12.190;2023-03-21T03:46:27;96137.13;;;6.92;100.00
23677;BME280;31493;49.058;12.190;2023-03-21T03:48:57;96135.78;;;6.85;100.00
23677;BME280;31493;49.058;12.190;2023-03-21T03:51:28;96146.06;;;6.85;100.00
23677;BME280;31493;49.058;12.190;2023-03-21T03:54:00;96139.28;;;6.84;100.00
23677;BME280;31493;49.058;12.190;2023-03-21T03:56:29;96147.97;;;6.81;100.00
23677;BME280;31493;49.058;12.190;2023-03-21T03:58:56;96138.84;;;6.76;100.00
23677;BME280;31493;49.058;12.190;2023-03-21T04:01:23;96147.13;;;6.81;100.00
23677;BME280;31493;49.058;12.190;2023-03-21T04:03:51;96145.56;;;6.78;100.00
23677;BME280;31493;49.058;12.190;2023-03-21T04:06:18;96141.41;;;6.76;100.00
23677;BME280;31493;49.058;12.190;2023-03-21T04:08:46;96143.31;;;6.72;100.00
23677;BME280;31493;49.058;12.190;2023-03-21T04:11:15;96143.22;;;6.73;100.00
23677;BME280;31493;49.058;12.190;2023-03-21T04:13:42;96142.47;;;6.71;100.00
23677;BME280;31493;49.058;12.190;2023-03-21T04:16:10;96136.41;;;6.72;100.00
23677;BME280;31493;49.058;12.190;2023-03-21T04:18:37;96143.31;;;6.72;100.00
23677;BME280;31493;49.058;12.190;2023-03-21T04:21:08;96131.44;;;6.69;100.00
23677;BME280;31493;49.058;12.190;2023-03-21T04:23:37;96138.47;;;6.66;100.00
23677;BME280;31493;49.058;12.190;2023-03-21T04:26:05;96130.59;;;6.69;100.00
23677;BME280;31493;49.058;12.190;2023-03-21T04:28:34;96139.47;;;6.63;100.00
23677;BME280;31493;49.058;12.190;2023-03-21T04:31:03;96136.28;;;6.76;100.00
23677;BME280;31493;49.058;12.190;2023-03-21T04:33:30;96150.50;;;6.65;100.00
23677;BME280;31493;49.058;12.190;2023-03-21T04:35:57;96139.91;;;6.71;100.00
23677;BME280;31493;49.058;12.190;2023-03-21T04:38:25;96137.16;;;6.74;100.00
23677;BME280;31493;49.058;12.190;2023-03-21T04:40:55;96139.72;;;6.74;100.00
23677;BME280;31493;49.058;12.190;2023-03-21T04:43:22;96143.13;;;6.75;100.00
23677;BME280;31493;49.058;12.190;2023-03-21T04:45:51;96145.56;;;6.78;100.00
23677;BME280;31493;49.058;12.190;2023-03-21T04:48:18;96142.31;;;6.74;100.00
23677;BME280;31493;49.058;12.190;2023-03-21T04:50:45;96145.88;;;6.72;100.00
23677;BME280;31493;49.058;12.190;2023-03-21T04:53:12;96145.78;;;6.73;100.00
23677;BME280;31493;49.058;12.190;2023-03-21T04:55:39;96144.13;;;6.72;100.00
23677;BME280;31493;49.058;12.190;2023-03-21T04:58:06;96145.13;;;6.70;100.00
23677;BME280;31493;49.058;12.190;2023-03-21T05:00:33;96131.75;;;6.63;100.00
23677;BME280;31493;49.058;12.190;2023-03-21T05:03:05;96135.81;;;6.67;100.00
23677;BME280;31493;49.058;12.190;2023-03-21T05:05:34;96135.16;;;6.64;100.00
23677;BME280;31493;49.058;12.190;2023-03-21T05:08:02;96143.63;;;6.66;100.00
23677;BME280;31493;49.058;12.190;2023-03-21T05:10:29;96134.03;;;6.69;100.00
23677;BME280;31493;49.058;12.190;2023-03-21T05:12:56;96133.94;;;6.71;100.00
23677;BME280;31493;49.058;12.190;2023-03-21T05:15:23;96136.41;;;6.72;100.00
23677;BME280;31493;49.058;12.190;2023-03-21T05:17:50;96142.41;;;6.73;100.00
23677;BME280;31493;49.058;12.190;2023-03-21T05:20:19;96135.50;;;6.73;100.00
23677;BME280;31493;49.058;12.190;2023-03-21T05:22:46;96134.84;;;6.70;100.00
23677;BME280;31493;49.058;12.190;2023-03-21T05:25:16;96142.06;;;6.63;100.00
23677;BME280;31493;49.058;12.190;2023-03-21T05:28:00;96133.97;;;6.54;100.00
23677;BME280;31493;49.058;12.190;2023-03-21T05:30:27;96138.50;;;6.49;100.00
23677;BME280;31493;49.058;12.190;2023-03-21T05:32:54;96148.19;;;6.43;100.00
23677;BME280;31493;49.058;12.190;2023-03-21T05:35:23;96140.41;;;6.45;100.00
23677;BME280;31493;49.058;12.190;2023-03-21T05:37:50;96131.69;;;6.47;100.00
23677;BME280;31493;49.058;12.190;2023-03-21T05:40:18;96148.69;;;6.50;100.00
23677;BME280;31493;49.058;12.190;2023-03-21T05:42:47;96149.38;;;6.54;100.00
23677;BME280;31493;49.058;12.190;2023-03-21T05:45:14;96143.41;;;6.53;100.00
23677;BME280;31493;49.058;12.190;2023-03-21T05:47:41;96146.81;;;6.54;100.00
23677;BME280;31493;49.058;12.190;2023-03-21T05:50:10;96140.16;;;6.50;100.00
23677;BME280;31493;49.058;12.190;2023-03-21T05:52:39;96143.81;;;6.45;100.00
23677;BME280;31493;49.058;12.190;2023-03-21T05:55:07;96137.16;;;6.41;100.00
23677;BME280;31493;49.058;12.190;2023-03-21T05:57:34;96149.88;;;6.44;100.00
23677;BME280;31493;49.058;12.190;2023-03-21T06:00:05;96148.03;;;6.46;100.00
23677;BME280;31493;49.058;12.190;2023-03-21T06:02:32;96152.16;;;6.66;100.00
23677;BME280;31493;49.058;12.190;2023-03-21T06:04:59;96154.06;;;6.63;100.00
23677;BME280;31493;49.058;12.190;2023-03-21T06:07:27;96146.78;;;6.71;100.00
23677;BME280;31493;49.058;12.190;2023-03-21T06:09:55;96145.78;;;6.73;100.00
23677;BME280;31493;49.058;12.190;2023-03-21T06:12:22;96153.19;;;6.80;100.00
23677;BME280;31493;49.058;12.190;2023-03-21T06:14:49;96150.41;;;6.84;100.00
23677;BME280;31493;49.058;12.190;2023-03-21T06:17:16;96160.59;;;6.86;100.00
23677;BME280;31493;49.058;12.190;2023-03-21T06:19:43;96160.59;;;6.86;100.00
23677;BME280;31493;49.058;12.190;2023-03-21T06:22:10;96152.78;;;6.87;100.00
23677;BME280;31493;49.058;12.190;2023-03-21T06:24:37;96161.50;;;6.85;100.00
23677;BME280;31493;49.058;12.190;2023-03-21T06:27:06;96164.84;;;6.87;100.00
23677;BME280;31493;49.058;12.190;2023-03-21T06:29:33;96159.69;;;6.87;100.00
23677;BME280;31493;49.058;12.190;2023-03-21T06:32:00;96157.47;;;6.96;100.00
23677;BME280;31493;49.058;12.190;2023-03-21T06:34:27;96162.22;;;7.04;100.00
23677;BME280;31493;49.058;12.190;2023-03-21T06:36:54;96177.03;;;7.16;100.00
23677;BME280;31493;49.058;12.190;2023-03-21T06:39:21;96159.44;;;7.24;100.00
23677;BME280;31493;49.058;12.190;2023-03-21T06:41:48;96169.34;;;7.32;100.00
23677;BME280;31493;49.058;12.190;2023-03-21T06:44:16;96167.56;;;7.48;100.00
23677;BME280;31493;49.058;12.190;2023-03-21T06:46:43;96179.16;;;7.57;100.00
23677;BME280;31493;49.058;12.190;2023-03-21T06:49:10;96167.78;;;7.61;100.00
23677;BME280;31493;49.058;12.190;2023-03-21T06:51:37;96174.81;;;7.58;100.00
23677;BME280;31493;49.058;12.190;2023-03-21T06:54:04;96175.56;;;7.60;100.00
23677;BME280;31493;49.058;12.190;2023-03-21T06:56:31;96176.88;;;7.67;100.00
23677;BME280;31493;49.058;12.190;2023-03-21T06:58:58;96175.81;;;7.71;100.00
23677;BME280;31493;49.058;12.190;2023-03-21T07:01:28;96173.72;;;7.77;100.00
23677;BME280;31493;49.058;12.190;2023-03-21T07:03:55;96184.44;;;7.86;100.00
23677;BME280;31493;49.058;12.190;2023-03-21T07:06:24;96180.78;;;7.90;100.00
23677;BME280;31493;49.058;12.190;2023-03-21T07:08:53;96181.03;;;8.01;100.00
23677;BME280;31493;49.058;12.190;2023-03-21T07:11:21;96174.47;;;7.95;100.00
23677;BME280;31493;49.058;12.190;2023-03-21T07:13:48;96184.63;;;7.98;100.00
23677;BME280;31493;49.058;12.190;2023-03-21T07:16:16;96175.53;;;7.91;100.00
23677;BME280;31493;49.058;12.190;2023-03-21T07:18:45;96171.19;;;7.92;100.00
23677;BME280;31493;49.058;12.190;2023-03-21T07:21:12;96178.19;;;7.90;100.00
23677;BME280;31493;49.058;12.190;2023-03-21T07:23:40;96187.00;;;7.86;100.00
23677;BME280;31493;49.058;12.190;2023-03-21T07:26:07;96180.28;;;7.99;100.00
23677;BME280;31493;49.058;12.190;2023-03-21T07:28:34;96182.78;;;8.00;100.00
23677;BME280;31493;49.058;12.190;2023-03-21T07:31:04;96186.19;;;8.01;100.00
23677;BME280;31493;49.058;12.190;2023-03-21T07:33:32;96185.94;;;8.05;100.00
23677;BME280;31493;49.058;12.190;2023-03-21T07:36:01;96196.25;;;8.05;100.00
23677;BME280;31493;49.058;12.190;2023-03-21T07:38:28;96184.44;;;8.01;100.00
23677;BME280;31493;49.058;12.190;2023-03-21T07:40:57;96193.81;;;8.18;100.00
23677;BME280;31493;49.058;12.190;2023-03-21T07:43:25;96199.44;;;8.25;100.00
23677;BME280;31493;49.058;12.190;2023-03-21T07:45:55;96187.00;;;8.17;99.78
23677;BME280;31493;49.058;12.190;2023-03-21T07:48:23;96176.72;;;8.31;100.00
23677;BME280;31493;49.058;12.190;2023-03-21T07:50:50;96171.03;;;8.41;100.00
23677;BME280;31493;49.058;12.190;2023-03-21T07:53:18;96182.03;;;8.28;96.95
23677;BME280;31493;49.058;12.190;2023-03-21T07:55:48;96180.28;;;8.45;92.71
23677;BME280;31493;49.058;12.190;2023-03-21T07:58:15;96185.81;;;8.53;97.11
23677;BME280;31493;49.058;12.190;2023-03-21T08:00:43;96171.44;;;8.49;95.02
23677;BME280;31493;49.058;12.190;2023-03-21T08:03:10;96174.75;;;8.51;92.31
23677;BME280;31493;49.058;12.190;2023-03-21T08:05:37;96168.25;;;8.59;94.72
23677;BME280;31493;49.058;12.190;2023-03-21T08:08:05;96179.31;;;8.61;94.18
23677;BME280;31493;49.058;12.190;2023-03-21T08:10:34;96166.88;;;8.68;92.73
23677;BME280;31493;49.058;12.190;2023-03-21T08:13:01;96177.03;;;8.85;92.62
23677;BME280;31493;49.058;12.190;2023-03-21T08:15:28;96175.91;;;8.75;93.64
23677;BME280;31493;49.058;12.190;2023-03-21T08:17:57;96171.97;;;8.84;93.33
23677;BME280;31493;49.058;12.190;2023-03-21T08:20:24;96180.25;;;8.89;91.12
23677;BME280;31493;49.058;12.190;2023-03-21T08:22:52;96170.22;;;8.99;90.69
23677;BME280;31493;49.058;12.190;2023-03-21T08:25:20;96174.28;;;9.03;88.38
23677;BME280;31493;49.058;12.190;2023-03-21T08:27:49;96171.78;;;9.15;92.76
23677;BME280;31493;49.058;12.190;2023-03-21T08:30:18;96178.50;;;9.32;93.30
23677;BME280;31493;49.058;12.190;2023-03-21T08:32:46;96165.88;;;9.28;91.43
23677;BME280;31493;49.058;12.190;2023-03-21T08:35:16;96175.47;;;9.26;90.52
23677;BME280;31493;49.058;12.190;2023-03-21T08:37:43;96165.31;;;9.23;88.98
23677;BME280;31493;49.058;12.190;2023-03-21T08:40:12;96173.97;;;9.36;91.13
23677;BME280;31493;49.058;12.190;2023-03-21T08:42:40;96164.75;;;9.32;90.14
23677;BME280;31493;49.058;12.190;2023-03-21T08:45:10;96169.47;;;9.25;87.14
23677;BME280;31493;49.058;12.190;2023-03-21T08:47:38;96167.34;;;9.46;89.29
23677;BME280;31493;49.058;12.190;2023-03-21T08:50:07;96171.97;;;9.68;89.02
23677;BME280;31493;49.058;12.190;2023-03-21T08:52:34;96170.59;;;9.77;90.83
23677;BME280;31493;49.058;12.190;2023-03-21T08:55:02;96172.63;;;9.72;90.00
23677;BME280;31493;49.058;12.190;2023-03-21T08:57:30;96165.53;;;9.61;86.62
23677;BME280;31493;49.058;12.190;2023-03-21T08:59:57;96161.47;;;9.57;86.78
23677;BME280;31493;49.058;12.190;2023-03-21T09:02:25;96162.13;;;9.87;88.29
23677;BME280;31493;49.058;12.190;2023-03-21T09:04:52;96167.19;;;9.76;87.41
23677;BME280;31493;49.058;12.190;2023-03-21T09:07:19;96172.16;;;9.79;85.45
23677;BME280;31493;49.058;12.190;2023-03-21T09:09:46;96171.50;;;9.76;90.14
23677;BME280;31493;49.058;12.190;2023-03-21T09:12:17;96169.38;;;10.09;86.38
23677;BME280;31493;49.058;12.190;2023-03-21T09:14:44;96163.91;;;9.87;84.24
23677;BME280;31493;49.058;12.190;2023-03-21T09:17:11;96156.09;;;10.28;87.03
23677;BME280;31493;49.058;12.190;2023-03-21T09:19:39;96162.34;;;10.38;89.01
23677;BME280;31493;49.058;12.190;2023-03-21T09:22:07;96148.06;;;10.45;87.18
23677;BME280;31493;49.058;12.190;2023-03-21T09:24:39;96151.34;;;10.35;86.16
23677;BME280;31493;49.058;12.190;2023-03-21T09:27:06;96147.25;;;10.58;87.47
23677;BME280;31493;49.058;12.190;2023-03-21T09:29:33;96148.38;;;10.92;87.19
23677;BME280;31493;49.058;12.190;2023-03-21T09:32:00;96161.22;;;10.55;82.99
23677;BME280;31493;49.058;12.190;2023-03-21T09:34:29;96153.53;;;10.41;83.47
23677;BME280;31493;49.058;12.190;2023-03-21T09:36:57;96160.38;;;10.15;81.35
23677;BME280;31493;49.058;12.190;2023-03-21T09:39:24;96151.78;;;9.87;80.70
23677;BME280;31493;49.058;12.190;2023-03-21T09:42:12;96142.50;;;10.64;84.18
23677;BME280;31493;49.058;12.190;2023-03-21T09:44:50;96143.31;;;10.77;81.30
23677;BME280;31493;49.058;12.190;2023-03-21T09:47:21;96149.31;;;10.91;79.53
23677;BME280;31493;49.058;12.190;2023-03-21T09:49:56;96142.03;;;10.32;76.92
23677;BME280;31493;49.058;12.190;2023-03-21T09:52:31;96142.66;;;10.48;78.01
23677;BME280;31493;49.058;12.190;2023-03-21T09:54:59;96145.59;;;10.57;76.41
23677;BME280;31493;49.058;12.190;2023-03-21T09:57:30;96136.75;;;11.60;79.27
23677;BME280;31493;49.058;12.190;2023-03-21T10:00:02;96139.03;;;11.64;79.05
23677;BME280;31493;49.058;12.190;2023-03-21T10:02:39;96141.50;;;11.29;75.14
23677;BME280;31493;49.058;12.190;2023-03-21T10:05:12;96139.84;;;11.28;75.76
23677;BME280;31493;49.058;12.190;2023-03-21T10:07:46;96137.06;;;12.04;76.83
23677;BME280;31493;49.058;12.190;2023-03-21T10:10:18;96128.78;;;12.46;71.85
23677;BME280;31493;49.058;12.190;2023-03-21T10:12:46;96139.47;;;12.19;77.24
23677;BME280;31493;49.058;12.190;2023-03-21T10:15:15;96122.16;;;11.09;67.08
23677;BME280;31493;49.058;12.190;2023-03-21T10:17:47;96121.63;;;11.53;68.70
23677;BME280;31493;49.058;12.190;2023-03-21T10:20:17;96115.78;;;11.99;67.50
23677;BME280;31493;49.058;12.190;2023-03-21T10:22:49;96107.97;;;12.70;66.71
23677;BME280;31493;49.058;12.190;2023-03-21T10:25:20;96112.44;;;12.21;65.09
23677;BME280;31493;49.058;12.190;2023-03-21T10:27:48;96113.13;;;12.12;66.96
23677;BME280;31493;49.058;12.190;2023-03-21T10:30:27;96110.06;;;12.53;69.85
23677;BME280;31493;49.058;12.190;2023-03-21T10:32:56;96112.75;;;12.52;65.85
23677;BME280;31493;49.058;12.190;2023-03-21T10:35:27;96107.38;;;12.66;67.32
23677;BME280;31493;49.058;12.190;2023-03-21T10:37:56;96118.63;;;12.89;71.04
23677;BME280;31493;49.058;12.190;2023-03-21T10:40:23;96116.56;;;12.59;64.78
23677;BME280;31493;49.058;12.190;2023-03-21T10:42:50;96108.81;;;12.81;64.55
23677;BME280;31493;49.058;12.190;2023-03-21T10:45:21;96104.44;;;12.93;66.85
23677;BME280;31493;49.058;12.190;2023-03-21T10:47:49;96102.78;;;12.92;67.29
23677;BME280;31493;49.058;12.190;2023-03-21T10:50:19;96113.94;;;11.65;60.71
23677;BME280;31493;49.058;12.190;2023-03-21T10:52:52;96099.59;;;11.72;62.59
23677;BME280;31493;49.058;12.190;2023-03-21T10:55:28;96101.03;;;11.76;63.91
23677;BME280;31493;49.058;12.190;2023-03-21T10:57:59;96090.88;;;12.32;63.53
23677;BME280;31493;49.058;12.190;2023-03-21T11:00:33;96096.31;;;12.98;65.52
23677;BME280;31493;49.058;12.190;2023-03-21T11:03:01;96094.75;;;13.51;61.20
23677;BME280;31493;49.058;12.190;2023-03-21T11:05:33;96092.72;;;13.55;61.66
23677;BME280;31493;49.058;12.190;2023-03-21T11:08:03;96091.69;;;13.46;62.80
23677;BME280;31493;49.058;12.190;2023-03-21T11:10:35;96091.38;;;14.04;63.83
23677;BME280;31493;49.058;12.190;2023-03-21T11:13:06;96088.81;;;14.45;60.11
23677;BME280;31493;49.058;12.190;2023-03-21T11:15:51;96083.00;;;14.74;62.19
23677;BME280;31493;49.058;12.190;2023-03-21T11:18:21;96083.69;;;13.81;61.38
23677;BME280;31493;49.058;12.190;2023-03-21T11:20:50;96068.63;;;13.85;65.54
23677;BME280;31493;49.058;12.190;2023-03-21T11:23:18;96062.94;;;13.91;62.43
23677;BME280;31493;49.058;12.190;2023-03-21T11:25:48;96067.69;;;13.86;62.06
23677;BME280;31493;49.058;12.190;2023-03-21T11:28:18;96063.50;;;13.62;63.73
23677;BME280;31493;49.058;12.190;2023-03-21T11:30:54;96053.00;;;14.59;61.96
23677;BME280;31493;49.058;12.190;2023-03-21T11:33:24;96054.72;;;14.69;59.86
23677;BME280;31493;49.058;12.190;2023-03-21T11:36:00;96054.22;;;14.55;62.30
23677;BME280;31493;49.058;12.190;2023-03-21T11:38:30;96059.84;;;15.11;60.50
23677;BME280;31493;49.058;12.190;2023-03-21T11:41:00;96044.94;;;14.92;57.50
23677;BME280;31493;49.058;12.190;2023-03-21T11:43:30;96046.56;;;15.33;60.87
23677;BME280;31493;49.058;12.190;2023-03-21T11:45:59;96032.66;;;15.73;59.88
23677;BME280;31493;49.058;12.190;2023-03-21T11:48:27;96051.09;;;15.31;58.61
23677;BME280;31493;49.058;12.190;2023-03-21T11:50:58;96051.53;;;15.37;58.58
23677;BME280;31493;49.058;12.190;2023-03-21T11:53:33;96037.44;;;14.27;61.63
23677;BME280;31493;49.058;12.190;2023-03-21T11:56:24;96024.88;;;14.32;58.43
23677;BME280;31493;49.058;12.190;2023-03-21T11:59:16;96023.41;;;14.18;58.99
23677;BME280;31493;49.058;12.190;2023-03-21T12:01:53;96028.53;;;13.55;61.31
23677;BME280;31493;49.058;12.190;2023-03-21T12:04:37;96008.00;;;13.73;62.55
23677;BME280;31493;49.058;12.190;2023-03-21T12:07:17;96001.69;;;15.30;59.38
23677;BME280;31493;49.058;12.190;2023-03-21T12:09:54;96012.06;;;13.66;60.38
23677;BME280;31493;49.058;12.190;2023-03-21T12:12:32;95991.97;;;15.51;60.82
23677;BME280;31493;49.058;12.190;2023-03-21T12:15:09;95990.56;;;15.28;55.84
23677;BME280;31493;49.058;12.190;2023-03-21T12:17:46;95991.72;;;15.74;55.50
23677;BME280;31493;49.058;12.190;2023-03-21T12:20:39;95976.06;;;14.34;58.82
23677;BME280;31493;49.058;12.190;2023-03-21T12:23:22;95987.38;;;15.15;57.53
23677;BME280;31493;49.058;12.190;2023-03-21T12:26:05;95977.25;;;15.31;57.03
23677;BME280;31493;49.058;12.190;2023-03-21T12:28:42;95967.69;;;15.70;59.94
23677;BME280;31493;49.058;12.190;2023-03-21T12:31:19;95979.19;;;15.48;57.17
23677;BME280;31493;49.058;12.190;2023-03-21T12:34:02;95978.66;;;15.54;57.43
23677;BME280;31493;49.058;12.190;2023-03-21T12:36:42;95974.72;;;15.00;57.29
23677;BME280;31493;49.058;12.190;2023-03-21T12:39:23;95955.59;;;15.69;60.64
23677;BME280;31493;49.058;12.190;2023-03-21T12:42:05;95954.09;;;15.76;58.83
23677;BME280;31493;49.058;12.190;2023-03-21T12:44:38;95967.69;;;15.80;61.52
23677;BME280;31493;49.058;12.190;2023-03-21T12:47:09;95948.03;;;15.56;59.09
23677;BME280;31493;49.058;12.190;2023-03-21T12:49:42;95973.38;;;15.16;57.53
23677;BME280;31493;49.058;12.190;2023-03-21T12:52:15;95965.50;;;14.87;61.36
23677;BME280;31493;49.058;12.190;2023-03-21T12:54:49;95963.44;;;15.79;62.03
23677;BME280;31493;49.058;12.190;2023-03-21T12:57:20;95960.22;;;15.46;58.45
23677;BME280;31493;49.058;12.190;2023-03-21T12:59:54;95954.31;;;15.25;59.24
23677;BME280;31493;49.058;12.190;2023-03-21T13:02:28;95942.41;;;15.22;60.01
23677;BME280;31493;49.058;12.190;2023-03-21T13:04:58;95954.03;;;15.28;58.96
23677;BME280;31493;49.058;12.190;2023-03-21T13:07:32;95942.66;;;15.58;61.10
23677;BME280;31493;49.058;12.190;2023-03-21T13:10:03;95949.84;;;15.66;63.16